Time;durP1;ratioP1;P1;durP2;ratioP2;P2;SDS_P1;SDS_P2;PMS_P1;PMS_P2;Temp;Humidity;BMP_temperature;BMP_pressure;BME280_temperature;BME280_humidity;BME280_pressure;Samples;Min_cycle;Max_cycle;Signal;HPM_P1;HPM_P2
2022/10/05 00:01:28;;;;;;;;;;;;;;;14.60;79.67;101718.69;5006719;28;19963;-58
2022/10/05 00:04:00;;;;;;;;;;;;;;;14.59;79.40;101717.03;5004869;28;20324;-57
2022/10/05 00:06:28;;;;;;;;;;;;;;;14.59;79.47;101708.16;5006582;28;20000;-57
2022/10/05 00:08:53;;;;;;;;;;;;;;;14.58;79.85;101718.03;5005769;28;20582;-57
2022/10/05 00:11:18;;;;;;;;;;;;;;;14.57;80.01;101713.69;5006945;28;19918;-56
2022/10/05 00:13:43;;;;;;;;;;;;;;;14.54;80.13;101709.53;5006903;28;19965;-57
2022/10/05 00:16:16;;;;;;;;;;;;;;;14.55;79.83;101703.19;5006918;28;20344;-57
2022/10/05 00:18:44;;;;;;;;;;;;;;;14.55;80.15;101705.84;5004745;28;20445;-57
2022/10/05 00:21:18;;;;;;;;;;;;;;;14.55;80.14;101697.81;5005810;28;20317;-58
2022/10/05 00:23:43;;;;;;;;;;;;;;;14.54;80.35;101700.69;5000940;28;19917;-58
2022/10/05 00:26:19;;;;;;;;;;;;;;;14.53;80.10;101699.00;5006089;28;20378;-58
2022/10/05 00:28:44;;;;;;;;;;;;;;;14.50;80.22;101694.84;5008387;28;19917;-58
2022/10/05 00:31:23;;;;;;;;;;;;;;;14.48;80.32;101691.53;5005778;28;20363;-57
2022/10/05 00:33:49;;;;;;;;;;;;;;;14.47;80.53;101692.53;5000750;28;20439;-58
2022/10/05 00:36:14;;;;;;;;;;;;;;;14.46;80.60;101685.53;5006702;28;19918;-57
2022/10/05 00:38:40;;;;;;;;;;;;;;;14.46;80.95;101682.03;5006793;28;19960;-57
2022/10/05 00:41:08;;;;;;;;;;;;;;;14.44;81.08;101684.84;5003917;28;19960;-58
2022/10/05 00:43:52;;;;;;;;;;;;;;;14.41;81.22;101687.00;5001058;28;20294;-58
2022/10/05 00:46:22;;;;;;;;;;;;;;;14.39;81.11;101689.84;5008022;28;19913;-58
2022/10/05 00:48:47;;;;;;;;;;;;;;;14.37;81.21;101694.53;5001921;28;20308;-57
2022/10/05 00:51:15;;;;;;;;;;;;;;;14.37;80.99;101685.69;5006097;28;20284;-57
2022/10/05 00:53:53;;;;;;;;;;;;;;;14.36;81.56;101686.69;5004424;28;19921;-58
2022/10/05 00:56:27;;;;;;;;;;;;;;;14.33;81.63;101685.22;5007205;28;20374;-58
2022/10/05 00:59:10;;;;;;;;;;;;;;;14.33;81.78;101684.38;5000219;28;20024;-58
2022/10/05 01:01:42;;;;;;;;;;;;;;;14.32;81.91;101688.88;4998156;28;20292;-57
2022/10/05 01:04:20;;;;;;;;;;;;;;;14.30;81.60;101682.88;5006807;28;19921;-58
2022/10/05 01:07:09;;;;;;;;;;;;;;;14.31;81.96;101684.56;5003481;28;19924;-57
2022/10/05 01:09:51;;;;;;;;;;;;;;;14.31;82.21;101678.38;5006676;28;20385;-58
2022/10/05 01:12:31;;;;;;;;;;;;;;;14.30;81.93;101669.53;5008017;28;19929;-59
2022/10/05 01:15:13;;;;;;;;;;;;;;;14.31;82.20;101673.03;5004994;28;19917;-57
2022/10/05 01:17:53;;;;;;;;;;;;;;;14.24;82.13;101651.53;5005982;28;19917;-57
2022/10/05 01:20:31;;;;;;;;;;;;;;;14.28;82.31;101658.19;5007562;28;19924;-58
2022/10/05 01:23:15;;;;;;;;;;;;;;;14.27;82.36;101656.53;5008213;28;19917;-58
2022/10/05 01:25:55;;;;;;;;;;;;;;;14.27;82.10;101662.69;5003764;28;19917;-58
2022/10/05 01:28:24;;;;;;;;;;;;;;;14.27;82.07;101656.53;5010940;28;19928;-58
2022/10/05 01:31:00;;;;;;;;;;;;;;;14.27;82.54;101659.19;5006593;28;19956;-56
2022/10/05 01:33:25;;;;;;;;;;;;;;;14.25;82.42;101656.69;5010968;28;19921;-57
2022/10/05 01:35:58;;;;;;;;;;;;;;;14.24;82.40;101662.22;5008625;28;19921;-58
2022/10/05 01:38:42;;;;;;;;;;;;;;;14.23;82.72;101665.91;5009146;28;20459;-58
2022/10/05 01:41:26;;;;;;;;;;;;;;;14.21;82.87;101655.38;5010114;28;19929;-56
2022/10/05 01:43:54;;;;;;;;;;;;;;;14.20;83.24;101650.22;5010784;28;19929;-57
2022/10/05 01:46:27;;;;;;;;;;;;;;;14.18;83.49;101646.91;5010921;28;19970;-58
2022/10/05 01:48:59;;;;;;;;;;;;;;;14.16;83.08;101647.03;5007476;28;20371;-57
2022/10/05 01:51:36;;;;;;;;;;;;;;;14.15;83.49;101640.03;5005297;28;19940;-57
2022/10/05 01:54:01;;;;;;;;;;;;;;;14.13;83.33;101631.34;5007939;28;19925;-57
2022/10/05 01:56:29;;;;;;;;;;;;;;;14.13;82.99;101620.69;5007778;28;20353;-58
2022/10/05 01:58:57;;;;;;;;;;;;;;;14.15;83.18;101618.66;5007895;28;19921;-58
2022/10/05 02:01:30;;;;;;;;;;;;;;;14.15;83.51;101613.31;5007512;28;19924;-57
2022/10/05 02:04:01;;;;;;;;;;;;;;;14.15;83.24;101605.31;5008638;28;20520;-58
2022/10/05 02:06:29;;;;;;;;;;;;;;;14.14;83.13;101603.66;5007434;28;19925;-58
2022/10/05 02:09:07;;;;;;;;;;;;;;;14.14;83.16;101597.47;5009777;28;19917;-56
2022/10/05 02:11:33;;;;;;;;;;;;;;;14.11;83.44;101592.47;5004706;28;19964;-57
2022/10/05 02:13:59;;;;;;;;;;;;;;;14.09;83.76;101599.84;5010826;28;19976;-58
2022/10/05 02:16:31;;;;;;;;;;;;;;;14.08;83.85;101601.69;5010222;28;20120;-58
2022/10/05 02:19:19;;;;;;;;;;;;;;;14.08;83.55;101608.84;5010967;28;20083;-58
2022/10/05 02:21:47;;;;;;;;;;;;;;;14.07;83.60;101601.84;5007625;28;19921;-58
2022/10/05 02:24:17;;;;;;;;;;;;;;;14.06;83.87;101585.00;5007859;28;19921;-57
2022/10/05 02:26:42;;;;;;;;;;;;;;;14.04;84.18;101591.53;5006638;28;19927;-58
2022/10/05 02:29:09;;;;;;;;;;;;;;;14.03;84.08;101589.84;5006210;28;20305;-58
2022/10/05 02:31:46;;;;;;;;;;;;;;;14.02;84.08;101582.84;5005495;28;20201;-58
2022/10/05 02:34:20;;;;;;;;;;;;;;;14.02;84.43;101580.19;5002398;28;19972;-58
2022/10/05 02:36:50;;;;;;;;;;;;;;;14.03;84.05;101573.84;5010047;28;19921;-58
2022/10/05 02:39:23;;;;;;;;;;;;;;;14.02;84.45;101575.69;5008837;28;20003;-57
2022/10/05 02:41:51;;;;;;;;;;;;;;;14.02;84.24;101572.19;4997603;28;19917;-56
2022/10/05 02:44:34;;;;;;;;;;;;;;;14.02;84.25;101572.19;5011370;28;19936;-58
2022/10/05 02:47:06;;;;;;;;;;;;;;;14.01;84.26;101570.50;5007330;28;20312;-58
2022/10/05 02:49:44;;;;;;;;;;;;;;;13.98;84.33;101569.03;5003753;28;19921;-58
2022/10/05 02:52:20;;;;;;;;;;;;;;;14.00;84.34;101555.50;5006653;28;19922;-58
2022/10/05 02:54:53;;;;;;;;;;;;;;;13.95;84.55;101559.53;5007797;28;19921;-57
2022/10/05 02:57:51;;;;;;;;;;;;;;;13.93;84.89;101544.69;5007767;28;20045;-58
2022/10/05 03:00:19;;;;;;;;;;;;;;;13.92;84.69;101551.88;4988705;28;20408;-58
2022/10/05 03:02:52;;;;;;;;;;;;;;;13.92;84.95;101545.69;5006534;28;20641;-58
2022/10/05 03:05:20;;;;;;;;;;;;;;;13.91;84.69;101547.53;5007790;28;20011;-58
2022/10/05 03:07:53;;;;;;;;;;;;;;;13.90;84.89;101540.53;5009701;28;20004;-58
2022/10/05 03:10:27;;;;;;;;;;;;;;;13.89;85.17;101541.53;5007674;28;19925;-57
2022/10/05 03:13:01;;;;;;;;;;;;;;;13.89;85.27;101538.88;5007256;28;19925;-58
2022/10/05 03:15:45;;;;;;;;;;;;;;;13.89;85.30;101541.53;5006814;28;19917;-58
2022/10/05 03:18:18;;;;;;;;;;;;;;;13.91;85.33;101538.69;5008447;28;19957;-58
2022/10/05 03:20:53;;;;;;;;;;;;;;;13.90;85.17;101540.53;5008807;28;20441;-57
2022/10/05 03:23:37;;;;;;;;;;;;;;;13.90;85.33;101532.53;5007186;28;19918;-58
2022/10/05 03:26:03;;;;;;;;;;;;;;;13.91;84.98;101539.53;5008299;28;19961;-58
2022/10/05 03:28:34;;;;;;;;;;;;;;;13.92;85.52;101540.34;5007442;28;19953;-58
2022/10/05 03:31:05;;;;;;;;;;;;;;;13.92;85.22;101541.19;5006762;28;19921;-57
2022/10/05 03:33:33;;;;;;;;;;;;;;;13.91;85.10;101534.19;5001928;28;19921;-58
2022/10/05 03:36:10;;;;;;;;;;;;;;;13.92;85.42;101530.50;5006268;28;19914;-58
2022/10/05 03:38:44;;;;;;;;;;;;;;;13.92;85.38;101533.19;5005557;28;20340;-58
2022/10/05 03:41:28;;;;;;;;;;;;;;;13.92;85.20;101541.19;5006015;28;19964;-58
2022/10/05 03:44:00;;;;;;;;;;;;;;;13.94;85.36;101541.00;5007233;28;19980;-58
2022/10/05 03:46:34;;;;;;;;;;;;;;;13.94;85.10;101536.50;5009147;28;19913;-57
2022/10/05 03:49:05;;;;;;;;;;;;;;;13.94;85.30;101533.84;5006262;28;19936;-58
2022/10/05 03:51:32;;;;;;;;;;;;;;;13.96;85.28;101536.31;5006153;28;19917;-58
2022/10/05 03:54:04;;;;;;;;;;;;;;;13.96;85.16;101536.31;5008459;28;19922;-57
2022/10/05 03:56:42;;;;;;;;;;;;;;;13.94;85.28;101544.50;5007611;28;19913;-58
2022/10/05 03:59:07;;;;;;;;;;;;;;;13.89;85.23;101530.88;5003276;28;20406;-58
2022/10/05 04:01:44;;;;;;;;;;;;;;;13.94;85.01;101541.00;5007456;28;20477;-58
2022/10/05 04:04:12;;;;;;;;;;;;;;;13.93;85.44;101534.00;5004311;28;20004;-58
2022/10/05 04:06:41;;;;;;;;;;;;;;;13.92;85.38;101535.84;5009290;28;19967;-58
2022/10/05 04:09:15;;;;;;;;;;;;;;;13.92;85.22;101538.53;5008807;28;20312;-58
2022/10/05 04:11:49;;;;;;;;;;;;;;;13.92;85.38;101535.84;5005435;28;19917;-56
2022/10/05 04:14:20;;;;;;;;;;;;;;;13.91;85.49;101536.03;5004193;28;20424;-58
2022/10/05 04:16:51;;;;;;;;;;;;;;;13.92;85.30;101524.34;5007270;28;19968;-57
2022/10/05 04:19:26;;;;;;;;;;;;;;;13.91;85.26;101534.19;5004351;28;19929;-56
2022/10/05 04:21:57;;;;;;;;;;;;;;;13.91;85.22;101534.19;5006597;28;19917;-58
2022/10/05 04:24:27;;;;;;;;;;;;;;;13.91;85.57;101536.84;5006547;28;19952;-58
2022/10/05 04:27:22;;;;;;;;;;;;;;;13.90;85.69;101532.53;5005897;28;19917;-59
2022/10/05 04:29:52;;;;;;;;;;;;;;;13.91;85.41;101534.19;5002739;28;19917;-58
2022/10/05 04:32:27;;;;;;;;;;;;;;;13.90;85.42;101529.84;5001734;28;20417;-58
2022/10/05 04:35:04;;;;;;;;;;;;;;;13.90;85.63;101531.69;5006293;28;19918;-58
2022/10/05 04:37:32;;;;;;;;;;;;;;;13.86;85.75;101525.00;4997141;28;19918;-57
2022/10/05 04:40:03;;;;;;;;;;;;;;;13.85;85.65;101524.19;5003733;28;19921;-57
2022/10/05 04:42:37;;;;;;;;;;;;;;;13.82;85.75;101518.38;5003986;28;19921;-58
2022/10/05 04:45:06;;;;;;;;;;;;;;;13.81;85.70;101517.53;5007927;28;19917;-57
2022/10/05 04:47:40;;;;;;;;;;;;;;;13.81;85.74;101519.38;5007840;28;20328;-58
2022/10/05 04:50:06;;;;;;;;;;;;;;;13.79;85.92;101514.22;5003718;28;19929;-57
2022/10/05 04:52:46;;;;;;;;;;;;;;;13.76;85.81;101511.06;5009446;28;19921;-58
2022/10/05 04:55:26;;;;;;;;;;;;;;;13.77;86.07;101515.41;5006102;28;19941;-57
2022/10/05 04:58:10;;;;;;;;;;;;;;;13.77;86.07;101510.88;5006384;28;19972;-58
2022/10/05 05:00:46;;;;;;;;;;;;;;;13.78;86.01;101509.03;5008653;28;19928;-58
2022/10/05 05:03:37;;;;;;;;;;;;;;;13.78;85.73;101504.53;5004459;28;20285;-58
2022/10/05 05:06:16;;;;;;;;;;;;;;;13.80;85.69;101507.03;5000699;28;20432;-58
2022/10/05 05:09:03;;;;;;;;;;;;;;;13.79;85.57;101498.19;5006461;28;19929;-57
2022/10/05 05:11:47;;;;;;;;;;;;;;;13.79;85.47;101503.53;5010773;28;19913;-58
2022/10/05 05:14:25;;;;;;;;;;;;;;;13.82;85.26;101503.19;5008965;28;20893;-58
2022/10/05 05:17:09;;;;;;;;;;;;;;;13.83;84.83;101496.00;5003322;28;20561;-58
2022/10/05 05:19:36;;;;;;;;;;;;;;;13.84;84.56;101500.31;5011322;28;19964;-57
2022/10/05 05:22:01;;;;;;;;;;;;;;;13.84;84.81;101493.16;5010999;28;19921;-58
2022/10/05 05:24:34;;;;;;;;;;;;;;;13.85;84.37;101497.47;5009946;28;20385;-58
2022/10/05 05:27:03;;;;;;;;;;;;;;;13.84;84.66;101485.13;5007460;28;19975;-58
2022/10/05 05:29:51;;;;;;;;;;;;;;;13.83;84.48;101498.66;5010345;28;19913;-58
2022/10/05 05:32:22;;;;;;;;;;;;;;;13.84;84.54;101489.66;5003581;28;19978;-58
2022/10/05 05:34:59;;;;;;;;;;;;;;;13.85;84.39;101493.97;5008817;28;19924;-58
2022/10/05 05:37:30;;;;;;;;;;;;;;;13.83;84.54;101491.50;5008188;28;20007;-58
2022/10/05 05:39:55;;;;;;;;;;;;;;;13.82;84.23;101495.16;5010872;28;19921;-57
2022/10/05 05:42:38;;;;;;;;;;;;;;;13.82;84.15;101492.50;5009615;28;19983;-58
2022/10/05 05:45:14;;;;;;;;;;;;;;;13.85;83.87;101492.13;5007165;28;19917;-58
2022/10/05 05:47:40;;;;;;;;;;;;;;;13.86;83.78;101491.13;5004438;28;20013;-57
2022/10/05 05:50:06;;;;;;;;;;;;;;;13.86;83.87;101492.97;5009796;28;19933;-58
2022/10/05 05:52:34;;;;;;;;;;;;;;;13.86;84.13;101482.28;5007059;28;19922;-57
2022/10/05 05:55:05;;;;;;;;;;;;;;;13.84;84.02;101487.81;5007867;28;20316;-58
2022/10/05 05:57:37;;;;;;;;;;;;;;;13.83;83.98;101488.00;5004420;28;19964;-58
2022/10/05 06:00:11;;;;;;;;;;;;;;;13.82;84.20;101491.66;5005951;28;20009;-57
2022/10/05 06:02:41;;;;;;;;;;;;;;;13.80;84.43;101489.19;5005828;28;19941;-58
2022/10/05 06:05:23;;;;;;;;;;;;;;;13.78;84.31;101491.19;5008838;28;19929;-58
2022/10/05 06:07:49;;;;;;;;;;;;;;;13.78;84.26;101490.34;5007208;28;19917;-58
2022/10/05 06:10:31;;;;;;;;;;;;;;;13.76;84.66;101485.19;5009106;28;19929;-57
2022/10/05 06:12:59;;;;;;;;;;;;;;;13.76;84.65;101485.19;5007082;28;20424;-58
2022/10/05 06:15:59;;;;;;;;;;;;;;;13.76;84.36;101487.03;5008926;28;19917;-57
2022/10/05 06:18:25;;;;;;;;;;;;;;;13.75;84.60;101485.38;5027455;28;19962;-58
2022/10/05 06:20:54;;;;;;;;;;;;;;;13.74;84.59;101484.53;5010922;28;19913;-58
2022/10/05 06:23:42;;;;;;;;;;;;;;;13.75;84.75;101483.53;5009142;28;20278;-57
2022/10/05 06:26:10;;;;;;;;;;;;;;;13.75;84.68;101490.72;5004136;28;19928;-58
2022/10/05 06:28:35;;;;;;;;;;;;;;;13.75;84.50;101486.22;5006963;28;20297;-57
2022/10/05 06:31:39;;;;;;;;;;;;;;;13.75;84.70;101482.69;5007674;28;19922;-57
2022/10/05 06:34:27;;;;;;;;;;;;;;;13.77;84.63;101486.03;5027982;28;19925;-58
2022/10/05 06:36:57;;;;;;;;;;;;;;;13.76;84.66;101482.53;5026508;28;19924;-59
2022/10/05 06:39:41;;;;;;;;;;;;;;;13.76;84.43;101487.03;5016073;28;19921;-58
2022/10/05 06:42:16;;;;;;;;;;;;;;;13.76;84.33;101487.03;5003776;28;19921;-58
2022/10/05 06:44:54;;;;;;;;;;;;;;;13.79;84.46;101478.66;5002280;28;20013;-58
2022/10/05 06:47:26;;;;;;;;;;;;;;;13.78;84.18;101488.53;5005459;28;19917;-58
2022/10/05 06:50:00;;;;;;;;;;;;;;;13.80;84.51;101483.84;5007546;28;19921;-58
2022/10/05 06:52:37;;;;;;;;;;;;;;;13.81;84.21;101490.00;5007791;28;19922;-57
2022/10/05 06:55:02;;;;;;;;;;;;;;;13.82;84.53;101491.66;5006353;28;19952;-58
2022/10/05 06:57:40;;;;;;;;;;;;;;;13.82;84.35;101481.81;5008656;28;19999;-58
2022/10/05 07:00:14;;;;;;;;;;;;;;;13.84;84.41;101490.47;5005109;28;19949;-58
2022/10/05 07:02:44;;;;;;;;;;;;;;;13.85;84.22;101485.97;5007309;28;19925;-58
2022/10/05 07:05:28;;;;;;;;;;;;;;;13.85;83.94;101492.13;5007547;28;19917;-58
2022/10/05 07:08:12;;;;;;;;;;;;;;;13.86;83.83;101496.47;5006696;28;19921;-58
2022/10/05 07:10:37;;;;;;;;;;;;;;;13.88;84.18;101499.81;5008028;28;19922;-57
2022/10/05 07:13:11;;;;;;;;;;;;;;;13.91;84.21;101493.31;5020507;28;19940;-58
2022/10/05 07:15:39;;;;;;;;;;;;;;;13.93;83.90;101492.13;5005479;28;20401;-58
2022/10/05 07:18:04;;;;;;;;;;;;;;;13.95;83.54;101495.44;4998332;28;20386;-58
2022/10/05 07:20:43;;;;;;;;;;;;;;;13.99;83.47;101487.91;5009525;28;19921;-58
2022/10/05 07:23:18;;;;;;;;;;;;;;;14.05;83.26;101491.69;5007367;28;19913;-58
2022/10/05 07:25:50;;;;;;;;;;;;;;;14.08;83.19;101492.16;5001421;28;20464;-58
2022/10/05 07:28:20;;;;;;;;;;;;;;;14.13;83.10;101495.13;5007548;28;19921;-58
2022/10/05 07:30:53;;;;;;;;;;;;;;;14.18;83.09;101497.28;5008630;28;19917;-58
2022/10/05 07:33:36;;;;;;;;;;;;;;;14.20;82.88;101506.78;5008061;28;20455;-58
2022/10/05 07:39:10;;;;;;;;;;;;;;;14.27;82.30;101499.72;5006956;28;19928;-57
2022/10/05 07:41:44;;;;;;;;;;;;;;;14.31;82.38;101499.38;5008847;28;19921;-58
2022/10/05 07:44:13;;;;;;;;;;;;;;;14.35;82.50;101498.00;5005807;28;19960;-58
2022/10/05 07:46:39;;;;;;;;;;;;;;;14.36;82.67;101500.47;5005834;28;20312;-58
2022/10/05 07:49:12;;;;;;;;;;;;;;;14.37;82.24;101501.31;5005604;28;19926;-58
2022/10/05 07:51:44;;;;;;;;;;;;;;;14.39;82.35;101505.47;5005119;28;19921;-58
2022/10/05 07:54:09;;;;;;;;;;;;;;;14.41;82.41;101508.78;5008525;28;20408;-58
2022/10/05 07:56:42;;;;;;;;;;;;;;;14.43;82.42;101500.63;5004055;28;19961;-58
2022/10/05 07:59:23;;;;;;;;;;;;;;;14.45;82.32;101502.09;5007354;28;20409;-57
2022/10/05 08:01:53;;;;;;;;;;;;;;;14.45;82.74;101507.44;5002383;28;19943;-58
2022/10/05 08:04:33;;;;;;;;;;;;;;;14.48;82.52;101506.28;5007232;28;19918;-58
2022/10/05 08:07:00;;;;;;;;;;;;;;;14.51;82.65;101498.72;5001798;28;20005;-58
2022/10/05 08:09:32;;;;;;;;;;;;;;;14.55;82.56;101499.19;5004046;28;19918;-55
2022/10/05 08:12:27;;;;;;;;;;;;;;;14.56;82.56;101495.50;4998699;28;19925;-58
2022/10/05 08:15:02;;;;;;;;;;;;;;;14.61;82.51;101501.16;5005063;28;20571;-58
2022/10/05 08:17:30;;;;;;;;;;;;;;;14.66;82.51;101496.06;5001038;28;19957;-57
2022/10/05 08:20:15;;;;;;;;;;;;;;;14.69;82.02;101493.03;5003086;28;19921;-58
2022/10/05 08:22:44;;;;;;;;;;;;;;;14.75;82.18;101486.16;5002705;28;19975;-57
2022/10/05 08:25:18;;;;;;;;;;;;;;;14.81;82.64;101493.44;5003967;28;20293;-58
2022/10/05 08:27:43;;;;;;;;;;;;;;;14.87;82.50;101490.88;5011618;28;19918;-58
2022/10/05 08:30:10;;;;;;;;;;;;;;;14.92;82.31;101486.81;5011750;28;19918;-56
2022/10/05 08:32:59;;;;;;;;;;;;;;;14.95;82.19;101481.09;5008653;28;19922;-58
2022/10/05 08:35:27;;;;;;;;;;;;;;;14.95;81.62;101479.25;5007207;28;20392;-58
2022/10/05 08:37:53;;;;;;;;;;;;;;;14.98;81.74;101472.69;5010293;28;20018;-59
2022/10/05 08:40:20;;;;;;;;;;;;;;;15.02;81.64;101479.34;5007614;28;20385;-58
2022/10/05 08:42:54;;;;;;;;;;;;;;;15.08;81.70;101470.59;5002251;28;20316;-58
2022/10/05 08:45:19;;;;;;;;;;;;;;;15.11;81.28;101478.25;5010170;28;20313;-58
2022/10/05 08:48:10;;;;;;;;;;;;;;;15.13;81.08;101474.38;5010109;28;19917;-58
2022/10/05 08:50:41;;;;;;;;;;;;;;;15.18;81.45;101468.47;5007411;28;19967;-58
2022/10/05 08:53:19;;;;;;;;;;;;;;;15.21;81.04;101472.63;5003789;28;19918;-58
2022/10/05 08:56:00;;;;;;;;;;;;;;;15.24;80.74;101461.53;5010585;28;19976;-58
2022/10/05 08:58:35;;;;;;;;;;;;;;;15.29;80.76;101462.63;5008133;28;20403;-58
2022/10/05 09:01:05;;;;;;;;;;;;;;;15.33;80.70;101460.44;5006638;28;19917;-57
2022/10/05 09:03:36;;;;;;;;;;;;;;;15.40;80.60;101464.03;5004842;28;19917;-58
2022/10/05 09:06:13;;;;;;;;;;;;;;;15.43;80.69;101463.66;5006871;28;20020;-58
2022/10/05 09:08:57;;;;;;;;;;;;;;;15.49;80.56;101453.00;5009596;28;20293;-58
2022/10/05 09:11:42;;;;;;;;;;;;;;;15.56;80.10;101455.75;5005952;28;21140;-58
2022/10/05 09:14:19;;;;;;;;;;;;;;;15.61;79.74;101457.91;5006987;28;19922;-58
2022/10/05 09:17:06;;;;;;;;;;;;;;;15.64;79.89;101454.88;5008332;28;19914;-58
2022/10/05 09:19:31;;;;;;;;;;;;;;;15.69;79.72;101455.13;5008178;28;19922;-58
2022/10/05 09:22:15;;;;;;;;;;;;;;;15.71;79.68;101453.09;5007392;28;19945;-58
2022/10/05 09:24:56;;;;;;;;;;;;;;;15.74;79.41;101452.72;5009871;28;19925;-58
2022/10/05 09:27:39;;;;;;;;;;;;;;;15.76;79.14;101454.19;5008828;28;19936;-58
2022/10/05 09:30:23;;;;;;;;;;;;;;;15.80;79.18;101454.63;5007498;28;19929;-58
2022/10/05 09:33:15;;;;;;;;;;;;;;;15.81;79.09;101442.88;4998963;28;19921;-57
2022/10/05 09:36:11;;;;;;;;;;;;;;;15.84;78.59;101444.34;5006405;28;19932;-58
2022/10/05 09:38:39;;;;;;;;;;;;;;;15.85;78.49;101451.38;5009371;28;19925;-58
2022/10/05 09:41:15;;;;;;;;;;;;;;;15.87;78.56;101439.44;5002444;28;19971;-57
2022/10/05 09:43:59;;;;;;;;;;;;;;;15.93;78.51;101443.25;5004062;28;19984;-56
2022/10/05 09:46:24;;;;;;;;;;;;;;;15.98;78.27;101443.50;5006398;28;19917;-58
2022/10/05 09:48:55;;;;;;;;;;;;;;;16.02;78.22;101442.09;5009386;28;19987;-57
2022/10/05 09:51:23;;;;;;;;;;;;;;;16.05;77.47;101439.84;5008795;28;20315;-56
2022/10/05 09:54:07;;;;;;;;;;;;;;;16.08;77.69;101428.75;5008744;28;19987;-58
2022/10/05 09:56:41;;;;;;;;;;;;;;;16.19;77.96;101430.09;5002535;28;19921;-59
2022/10/05 09:59:12;;;;;;;;;;;;;;;16.28;77.68;101423.56;5010866;28;19960;-59
2022/10/05 10:01:44;;;;;;;;;;;;;;;16.32;77.53;101419.47;5004522;28;19918;-58
2022/10/05 10:04:21;;;;;;;;;;;;;;;16.37;77.18;101414.34;5009069;28;20309;-58
2022/10/05 10:07:15;;;;;;;;;;;;;;;16.38;76.82;101413.31;5004294;28;19932;-57
2022/10/05 10:09:48;;;;;;;;;;;;;;;16.39;77.07;101414.97;5008822;28;20385;-59
2022/10/05 10:12:19;;;;;;;;;;;;;;;16.45;76.32;101405.31;5009673;28;19967;-58
2022/10/05 10:15:03;;;;;;;;;;;;;;;16.47;76.65;101402.44;5010563;28;20000;-58
2022/10/05 10:17:43;;;;;;;;;;;;;;;16.56;76.75;101393.25;5004604;28;19924;-58
2022/10/05 10:20:22;;;;;;;;;;;;;;;16.62;76.46;101397.81;5013372;28;19921;-58
2022/10/05 10:22:50;;;;;;;;;;;;;;;16.69;76.11;101404.91;5010704;28;19917;-58
2022/10/05 10:25:18;;;;;;;;;;;;;;;16.72;76.16;101395.63;5007477;28;19924;-58
2022/10/05 10:27:53;;;;;;;;;;;;;;;16.77;75.80;101393.22;5001668;28;19921;-58
2022/10/05 10:30:18;;;;;;;;;;;;;;;16.83;76.10;101392.41;5006599;28;20297;-58
2022/10/05 10:32:52;;;;;;;;;;;;;;;16.86;75.55;101394.69;5008169;28;19918;-59
2022/10/05 10:35:20;;;;;;;;;;;;;;;16.93;75.71;101384.81;5010710;28;20401;-58
2022/10/05 10:38:08;;;;;;;;;;;;;;;17.01;75.35;101384.66;5006321;28;20276;-58
2022/10/05 10:40:36;;;;;;;;;;;;;;;17.00;75.01;101377.63;5007371;28;19925;-58
2022/10/05 10:43:04;;;;;;;;;;;;;;;17.07;75.01;101374.16;5003517;28;19975;-58
2022/10/05 10:45:42;;;;;;;;;;;;;;;17.12;74.48;101371.72;5007364;28;19921;-58
2022/10/05 10:48:17;;;;;;;;;;;;;;;17.18;74.57;101366.34;5009930;28;19964;-58
2022/10/05 10:50:52;;;;;;;;;;;;;;;17.24;74.81;101370.91;5007604;28;19925;-58
2022/10/05 10:53:26;;;;;;;;;;;;;;;17.26;74.27;101365.34;5004696;28;19922;-58
2022/10/05 10:55:54;;;;;;;;;;;;;;;17.24;74.33;101373.59;5003884;28;19925;-58
2022/10/05 10:58:19;;;;;;;;;;;;;;;17.26;73.73;101370.72;5005368;28;19921;-58
2022/10/05 11:00:49;;;;;;;;;;;;;;;17.23;73.79;101360.38;5005338;28;19917;-58
2022/10/05 11:03:32;;;;;;;;;;;;;;;17.24;74.03;101362.88;5004891;28;20551;-59
2022/10/05 11:06:15;;;;;;;;;;;;;;;17.26;73.47;101358.13;5007474;28;19923;-58
2022/10/05 11:08:56;;;;;;;;;;;;;;;17.29;73.72;101371.13;5004596;28;19975;-58
2022/10/05 11:11:21;;;;;;;;;;;;;;;17.35;73.71;101364.16;5007355;28;19960;-59
2022/10/05 11:13:51;;;;;;;;;;;;;;;17.40;73.27;101363.53;5005326;28;19952;-58
2022/10/05 11:16:19;;;;;;;;;;;;;;;17.43;73.88;101355.91;5002478;28;20320;-58
2022/10/05 11:19:01;;;;;;;;;;;;;;;17.48;72.99;101350.75;5006664;28;19920;-58
2022/10/05 11:21:35;;;;;;;;;;;;;;;17.53;73.07;101352.81;5000083;28;19927;-58
2022/10/05 11:24:12;;;;;;;;;;;;;;;17.57;72.52;101344.16;4998912;28;20401;-58
2022/10/05 11:27:02;;;;;;;;;;;;;;;17.61;72.42;101341.88;5004442;28;19921;-59
2022/10/05 11:29:33;;;;;;;;;;;;;;;17.63;71.98;101335.25;5005327;28;19918;-58
2022/10/05 11:31:58;;;;;;;;;;;;;;;17.69;72.41;101335.53;5007278;28;19917;-58
2022/10/05 11:34:42;;;;;;;;;;;;;;;17.76;72.09;101325.63;5004192;28;19922;-58
2022/10/05 11:37:26;;;;;;;;;;;;;;;17.86;71.89;101318.78;5002593;28;19913;-58
2022/10/05 11:40:00;;;;;;;;;;;;;;;18.02;71.83;101332.84;5005298;28;19921;-58
2022/10/05 11:42:38;;;;;;;;;;;;;;;18.11;71.13;101312.78;5005833;28;20294;-58
2022/10/05 11:45:21;;;;;;;;;;;;;;;18.18;70.50;101316.28;5003155;28;19929;-57
2022/10/05 11:48:06;;;;;;;;;;;;;;;18.21;70.29;101322.09;5002185;28;19924;-58
2022/10/05 11:50:39;;;;;;;;;;;;;;;18.32;70.48;101317.09;5006186;28;19917;-58
2022/10/05 11:53:07;;;;;;;;;;;;;;;18.36;69.65;101304.88;5002891;28;19921;-58
2022/10/05 11:55:41;;;;;;;;;;;;;;;18.37;69.16;101318.13;5008699;28;19924;-57
2022/10/05 11:58:24;;;;;;;;;;;;;;;18.34;68.76;101307.78;5003906;28;19925;-58
2022/10/05 12:01:04;;;;;;;;;;;;;;;18.39;68.94;101304.47;5003524;28;19975;-58
2022/10/05 12:03:45;;;;;;;;;;;;;;;18.55;69.24;101296.78;4999800;28;19957;-58
2022/10/05 12:06:23;;;;;;;;;;;;;;;18.64;68.75;101286.63;5004926;28;19921;-59
2022/10/05 12:09:16;;;;;;;;;;;;;;;18.72;68.11;101277.47;5008016;28;19914;-58
2022/10/05 12:11:58;;;;;;;;;;;;;;;18.78;68.01;101282.00;5006684;28;19917;-59
2022/10/05 12:14:32;;;;;;;;;;;;;;;18.96;67.99;101274.06;5005563;28;20360;-59
2022/10/05 12:17:09;;;;;;;;;;;;;;;19.15;67.25;101273.13;5008760;28;19924;-58
2022/10/05 12:19:39;;;;;;;;;;;;;;;19.27;66.66;101278.63;5007739;28;19921;-58
2022/10/05 12:22:14;;;;;;;;;;;;;;;19.25;66.00;101279.91;5002865;28;19956;-58
2022/10/05 12:25:01;;;;;;;;;;;;;;;19.19;66.15;101268.97;5000461;28;19913;-58
2022/10/05 12:27:37;;;;;;;;;;;;;;;19.22;66.22;101266.88;5005512;28;19925;-59
2022/10/05 12:30:25;;;;;;;;;;;;;;;19.23;66.23;101271.22;5007688;28;19960;-58
2022/10/05 12:32:59;;;;;;;;;;;;;;;19.26;65.80;101268.09;5001391;28;19918;-59
2022/10/05 12:35:36;;;;;;;;;;;;;;;19.44;65.98;101263.63;5003839;28;19964;-58
2022/10/05 12:38:10;;;;;;;;;;;;;;;19.52;65.22;101257.13;5005514;28;20352;-58
2022/10/05 12:40:41;;;;;;;;;;;;;;;19.54;64.84;101246.97;5005585;28;19996;-58
2022/10/05 12:43:13;;;;;;;;;;;;;;;19.69;65.42;101266.34;5006258;28;19917;-58
2022/10/05 12:45:53;;;;;;;;;;;;;;;19.87;65.36;101254.78;5006438;28;19918;-58
2022/10/05 12:48:18;;;;;;;;;;;;;;;19.92;64.03;101248.72;5007188;28;19925;-58
2022/10/05 12:50:49;;;;;;;;;;;;;;;19.98;63.84;101248.69;5007555;28;20016;-57
2022/10/05 12:53:39;;;;;;;;;;;;;;;20.03;63.59;101248.81;5003788;28;19928;-58
2022/10/05 12:56:13;;;;;;;;;;;;;;;20.07;63.03;101265.38;5000788;28;20139;-58
2022/10/05 12:58:39;;;;;;;;;;;;;;;19.91;62.63;101255.97;5001799;28;19914;-58
2022/10/05 13:01:17;;;;;;;;;;;;;;;19.80;62.64;101260.25;5003685;28;19921;-58
2022/10/05 13:03:49;;;;;;;;;;;;;;;19.85;63.30;101262.25;5002115;28;20028;-58
2022/10/05 13:06:21;;;;;;;;;;;;;;;20.08;62.99;101256.25;5005214;28;19967;-58
2022/10/05 13:08:46;;;;;;;;;;;;;;;20.27;62.95;101259.78;5003672;28;20118;-58
2022/10/05 13:11:19;;;;;;;;;;;;;;;20.33;62.19;101246.22;5005441;28;20012;-58
2022/10/05 13:13:45;;;;;;;;;;;;;;;20.30;61.80;101259.34;5010708;28;19928;-58
2022/10/05 13:16:16;;;;;;;;;;;;;;;20.15;61.37;101245.38;5008996;28;19918;-58